createdAt,value
2018-06-23T00:00:52.612Z,1.97
2018-06-23T00:03:06.364Z,2.17
2018-06-23T00:05:19.061Z,2.40
2018-06-23T00:07:31.479Z,2.40
2018-06-23T00:09:43.824Z,2.57
2018-06-23T00:11:56.194Z,2.23
2018-06-23T00:14:08.608Z,2.60
2018-06-23T00:16:21.243Z,2.30
2018-06-23T00:18:33.583Z,1.80
2018-06-23T00:20:46.145Z,2.53
2018-06-23T00:22:58.560Z,1.90
2018-06-23T00:25:15.443Z,2.10
2018-06-23T00:27:27.844Z,1.80
2018-06-23T00:29:40.221Z,2.30
2018-06-23T00:31:53.388Z,2.20
2018-06-23T00:34:05.910Z,2.33
2018-06-23T00:36:18.497Z,2.40
2018-06-23T00:38:30.923Z,2.93
2018-06-23T00:40:43.446Z,2.63
2018-06-23T00:42:57.011Z,2.57
2018-06-23T00:45:09.385Z,2.50
2018-06-23T00:47:21.754Z,2.43
2018-06-23T00:49:34.848Z,2.57
2018-06-23T00:51:47.346Z,2.40
2018-06-23T00:53:59.830Z,2.70
2018-06-23T00:56:12.184Z,2.10
2018-06-23T00:58:24.594Z,2.20
2018-06-23T01:00:37.089Z,2.40
2018-06-23T01:02:49.470Z,2.80
2018-06-23T01:05:01.897Z,2.30
2018-06-23T01:07:14.231Z,2.07
2018-06-23T01:09:26.918Z,2.30
2018-06-23T01:11:39.286Z,2.30
2018-06-23T01:13:51.658Z,2.10
2018-06-23T01:16:04.060Z,3.03
2018-06-23T01:18:16.549Z,2.53
2018-06-23T01:20:28.960Z,2.43
2018-06-23T01:22:41.376Z,2.70
2018-06-23T01:24:53.758Z,2.60
2018-06-23T01:27:06.221Z,2.50
2018-06-23T01:29:18.734Z,2.57
2018-06-23T01:31:31.336Z,2.97
2018-06-23T01:33:45.425Z,2.30
2018-06-23T01:35:57.894Z,2.57
2018-06-23T01:38:10.368Z,2.63
2018-06-23T01:40:22.742Z,2.83
2018-06-23T01:42:35.185Z,2.40
2018-06-23T01:44:47.685Z,2.77
2018-06-23T01:47:00.057Z,2.73
2018-06-23T01:49:13.093Z,2.57
2018-06-23T01:51:25.476Z,2.47
2018-06-23T01:53:37.955Z,2.67
2018-06-23T01:55:50.466Z,2.57
2018-06-23T01:58:02.851Z,2.77
2018-06-23T02:00:15.570Z,2.53
2018-06-23T02:02:28.349Z,2.50
2018-06-23T02:04:40.815Z,2.37
2018-06-23T02:06:53.151Z,2.83
2018-06-23T02:09:07.666Z,2.43
2018-06-23T02:11:20.310Z,3.10
2018-06-23T02:13:32.647Z,3.10
2018-06-23T02:15:50.747Z,2.53
2018-06-23T02:18:08.684Z,2.80
2018-06-23T02:20:26.648Z,2.90
2018-06-23T02:22:44.723Z,2.67
2018-06-23T02:25:02.765Z,2.63
2018-06-23T02:27:20.810Z,2.23
2018-06-23T02:29:38.761Z,2.60
2018-06-23T02:31:56.733Z,2.60
2018-06-23T02:34:14.708Z,2.97
2018-06-23T02:36:27.106Z,3.00
2018-06-23T02:38:39.612Z,2.93
2018-06-23T02:40:52.061Z,2.93
2018-06-23T02:43:04.642Z,3.10
2018-06-23T02:45:17.034Z,2.77
2018-06-23T02:47:29.476Z,2.83
2018-06-23T02:49:41.870Z,3.07
2018-06-23T02:51:54.447Z,2.93
2018-06-23T02:54:07.038Z,2.67
2018-06-23T02:56:19.839Z,3.00
2018-06-23T02:58:33.835Z,3.10
2018-06-23T03:00:46.243Z,2.90
2018-06-23T03:02:58.587Z,3.03
2018-06-23T03:05:10.988Z,2.83
2018-06-23T03:07:23.369Z,2.87
2018-06-23T03:09:35.774Z,3.03
2018-06-23T03:11:48.208Z,2.87
2018-06-23T03:14:00.618Z,3.10
2018-06-23T03:16:13.867Z,2.80
2018-06-23T03:18:26.290Z,2.70
2018-06-23T03:20:38.760Z,2.50
2018-06-23T03:22:51.288Z,2.93
2018-06-23T03:25:04.951Z,2.70
2018-06-23T03:27:17.333Z,3.43
2018-06-23T03:29:30.982Z,2.93
2018-06-23T03:31:43.467Z,2.93
2018-06-23T03:33:55.830Z,2.10
2018-06-23T03:36:08.488Z,2.80
2018-06-23T03:38:20.995Z,3.23
2018-06-23T03:40:33.414Z,3.20
2018-06-23T03:42:45.854Z,2.57
2018-06-23T03:44:59.614Z,3.40
2018-06-23T03:47:12.382Z,3.43
2018-06-23T03:49:24.840Z,3.03
2018-06-23T03:51:37.409Z,3.00
2018-06-23T03:53:49.876Z,3.10
2018-06-23T03:56:02.875Z,3.90
2018-06-23T03:58:15.290Z,3.60
2018-06-23T04:00:27.748Z,3.60
2018-06-23T04:02:40.206Z,3.47
2018-06-23T04:04:52.615Z,3.30
2018-06-23T04:07:05.023Z,2.93
2018-06-23T04:09:17.430Z,3.13
2018-06-23T04:11:29.869Z,3.20
2018-06-23T04:13:42.219Z,3.17
2018-06-23T04:15:54.713Z,3.37
2018-06-23T04:18:09.085Z,3.67
2018-06-23T04:20:21.509Z,2.53
2018-06-23T04:22:33.976Z,3.30
2018-06-23T04:24:46.404Z,3.03
2018-06-23T04:26:58.826Z,3.03
2018-06-23T04:29:11.286Z,2.40
2018-06-23T04:31:23.658Z,2.37
2018-06-23T04:33:36.018Z,2.00
2018-06-23T04:35:48.631Z,3.00
2018-06-23T04:38:01.043Z,2.93
2018-06-23T04:40:13.494Z,2.87
2018-06-23T04:42:25.936Z,2.93
2018-06-23T04:44:38.387Z,2.93
2018-06-23T04:46:50.914Z,2.07
2018-06-23T04:49:03.394Z,2.43
2018-06-23T04:51:15.954Z,1.97
2018-06-23T04:53:28.478Z,2.63
2018-06-23T04:55:40.933Z,3.17
2018-06-23T04:57:55.551Z,3.40
2018-06-23T05:00:08.051Z,2.53
2018-06-23T05:02:20.478Z,3.43
2018-06-23T05:04:32.916Z,2.70
2018-06-23T05:06:45.360Z,3.70
2018-06-23T05:08:58.300Z,3.50
2018-06-23T05:11:10.759Z,3.77
2018-06-23T05:13:23.187Z,3.83
2018-06-23T05:15:35.799Z,3.03
2018-06-23T05:17:48.223Z,3.13
2018-06-23T05:20:00.612Z,3.30
2018-06-23T05:22:13.214Z,3.07
2018-06-23T05:24:25.645Z,3.90
2018-06-23T05:26:38.187Z,3.90
2018-06-23T05:28:50.682Z,3.90
2018-06-23T05:31:03.139Z,3.97
2018-06-23T05:33:19.456Z,3.90
2018-06-23T05:35:31.958Z,3.20
2018-06-23T05:37:44.473Z,3.50
2018-06-23T05:39:57.178Z,3.70
2018-06-23T05:42:09.575Z,3.97
2018-06-23T05:44:22.141Z,3.70
2018-06-23T05:46:34.739Z,4.00
2018-06-23T05:48:47.156Z,3.67
2018-06-23T05:51:01.511Z,4.00
2018-06-23T05:53:14.155Z,3.97
2018-06-23T05:55:26.632Z,3.73
2018-06-23T05:57:39.363Z,3.57
2018-06-23T05:59:51.775Z,3.83
2018-06-23T06:02:04.543Z,3.93
2018-06-23T06:04:16.983Z,3.63
2018-06-23T06:06:29.397Z,3.90
2018-06-23T06:08:41.762Z,3.90
2018-06-23T06:10:54.190Z,3.63
2018-06-23T06:13:06.655Z,3.80
2018-06-23T06:15:19.146Z,4.17
2018-06-23T06:17:33.418Z,3.53
2018-06-23T06:19:45.906Z,3.73
2018-06-23T06:21:59.000Z,3.90
2018-06-23T06:24:11.395Z,4.23
2018-06-23T06:26:23.831Z,3.90
2018-06-23T06:28:36.274Z,3.73
2018-06-23T06:30:48.727Z,3.57
2018-06-23T06:33:02.052Z,4.17
2018-06-23T06:35:14.465Z,3.60
2018-06-23T06:37:26.866Z,4.50
2018-06-23T06:39:39.523Z,4.03
2018-06-23T06:41:52.073Z,4.40
2018-06-23T06:44:04.515Z,3.50
2018-06-23T06:46:16.927Z,3.90
2018-06-23T06:48:29.481Z,4.33
2018-06-23T06:50:41.893Z,3.93
2018-06-23T06:52:54.311Z,4.27
2018-06-23T06:55:06.674Z,4.10
2018-06-23T06:57:19.247Z,3.63
2018-06-23T06:59:31.687Z,4.10
2018-06-23T07:01:44.260Z,3.90
2018-06-23T07:03:57.351Z,4.47
2018-06-23T07:06:09.829Z,4.37
2018-06-23T07:08:23.158Z,3.60
2018-06-23T07:10:35.565Z,4.80
2018-06-23T07:12:48.257Z,4.83
2018-06-23T07:15:00.657Z,4.07
2018-06-23T07:17:14.627Z,3.57
2018-06-23T07:19:27.038Z,3.50
2018-06-23T07:21:43.322Z,3.87
2018-06-23T07:23:56.649Z,4.10
2018-06-23T07:26:09.163Z,3.97
2018-06-23T07:28:21.587Z,3.33
2018-06-23T07:30:35.059Z,3.83
2018-06-23T07:32:47.843Z,3.80
2018-06-23T07:35:00.302Z,3.83
2018-06-23T07:37:12.680Z,3.13
2018-06-23T07:39:25.244Z,3.10
2018-06-23T07:41:43.582Z,3.27
2018-06-23T07:43:56.072Z,3.37
2018-06-23T07:46:08.687Z,3.50
2018-06-23T07:48:21.439Z,3.63
2018-06-23T07:50:34.035Z,3.50
2018-06-23T07:52:46.479Z,3.43
2018-06-23T07:54:59.907Z,3.27
2018-06-23T07:57:12.344Z,3.47
2018-06-23T07:59:24.833Z,3.47
2018-06-23T08:01:38.103Z,3.43
2018-06-23T08:03:51.181Z,3.90
2018-06-23T08:06:04.137Z,3.60
2018-06-23T08:08:17.474Z,4.67
2018-06-23T08:10:30.501Z,3.73
2018-06-23T08:12:42.866Z,3.70
2018-06-23T08:14:55.437Z,4.47
2018-06-23T08:17:08.703Z,4.43
2018-06-23T08:19:21.247Z,4.60
2018-06-23T08:21:33.762Z,4.80
2018-06-23T08:23:46.381Z,3.90
2018-06-23T08:26:00.740Z,4.17
2018-06-23T08:28:13.455Z,4.23
2018-06-23T08:30:26.130Z,5.27
2018-06-23T08:32:38.559Z,4.90
2018-06-23T08:34:51.704Z,4.50
2018-06-23T08:37:04.331Z,4.93
2018-06-23T08:39:16.838Z,4.43
2018-06-23T08:41:29.342Z,4.30
2018-06-23T08:43:41.862Z,3.80
2018-06-23T08:45:54.278Z,4.30
2018-06-23T08:48:06.816Z,4.10
2018-06-23T08:50:19.366Z,3.87
2018-06-23T08:52:31.970Z,3.97
2018-06-23T08:54:46.432Z,4.07
2018-06-23T08:56:58.975Z,3.47
2018-06-23T08:59:11.448Z,4.03
2018-06-23T09:01:24.086Z,3.47
2018-06-23T09:03:37.574Z,3.90
2018-06-23T09:05:50.057Z,3.63
2018-06-23T09:08:02.454Z,3.63
2018-06-23T09:10:16.024Z,3.50
2018-06-23T09:12:28.659Z,3.53
2018-06-23T09:14:42.305Z,3.83
2018-06-23T09:16:54.897Z,4.20
2018-06-23T09:19:10.167Z,4.33
2018-06-23T09:21:24.476Z,3.63
2018-06-23T09:23:41.109Z,4.40
2018-06-23T09:25:53.525Z,3.90
2018-06-23T09:28:07.890Z,3.70
2018-06-23T09:30:20.244Z,3.73
2018-06-23T09:32:33.478Z,3.60
2018-06-23T09:34:49.972Z,3.57
2018-06-23T09:37:02.332Z,3.20
2018-06-23T09:39:15.156Z,3.50
2018-06-23T09:41:29.518Z,3.57
2018-06-23T09:43:42.770Z,5.67
2018-06-23T09:45:55.309Z,5.37
2018-06-23T09:48:09.863Z,4.00
2018-06-23T09:50:22.770Z,3.93
2018-06-23T09:52:37.096Z,4.40
2018-06-23T09:54:50.403Z,4.37
2018-06-23T09:57:02.798Z,3.93
2018-06-23T09:59:16.069Z,4.03
2018-06-23T10:01:29.261Z,3.53
2018-06-23T10:03:44.655Z,4.57
2018-06-23T10:05:57.214Z,3.83
2018-06-23T10:08:10.591Z,4.43
2018-06-23T10:10:23.068Z,3.37
2018-06-23T10:12:38.669Z,3.40
2018-06-23T10:14:51.736Z,3.60
2018-06-23T10:17:04.370Z,3.67
2018-06-23T10:19:16.821Z,4.40
2018-06-23T10:21:29.355Z,3.43
2018-06-23T10:23:41.712Z,3.93
2018-06-23T10:25:54.221Z,3.47
2018-06-23T10:28:07.364Z,3.30
2018-06-23T10:30:19.857Z,4.47
2018-06-23T10:32:32.760Z,4.50
2018-06-23T10:34:46.049Z,4.07
2018-06-23T10:36:58.745Z,3.77
2018-06-23T10:39:11.944Z,4.17
2018-06-23T10:41:24.735Z,4.70
2018-06-23T10:43:37.222Z,4.17
2018-06-23T10:45:49.732Z,4.00
2018-06-23T10:48:02.389Z,3.33
2018-06-23T10:50:14.874Z,3.77
2018-06-23T10:52:27.522Z,4.33
2018-06-23T10:54:40.004Z,4.27
2018-06-23T10:56:52.955Z,3.77
2018-06-23T10:59:05.638Z,4.10
2018-06-23T11:01:18.199Z,3.33
2018-06-23T11:03:30.585Z,4.23
2018-06-23T11:05:43.124Z,3.27
2018-06-23T11:07:55.617Z,4.03
2018-06-23T11:10:08.380Z,4.23
2018-06-23T11:12:21.059Z,5.03
2018-06-23T11:14:33.552Z,3.10
2018-06-23T11:16:46.002Z,3.73
2018-06-23T11:18:58.530Z,3.50
2018-06-23T11:21:10.926Z,3.57
2018-06-23T11:23:23.363Z,3.20
2018-06-23T11:25:35.806Z,3.93
2018-06-23T11:27:48.898Z,3.23
2018-06-23T11:30:01.739Z,3.53
2018-06-23T11:32:14.148Z,3.57
2018-06-23T11:34:26.553Z,3.77
2018-06-23T11:36:39.076Z,3.20
2018-06-23T11:38:52.462Z,3.30
2018-06-23T11:41:04.980Z,3.20
2018-06-23T11:43:17.553Z,3.07
2018-06-23T11:45:31.283Z,3.10
2018-06-23T11:47:45.383Z,3.13
2018-06-23T11:49:57.773Z,3.30
2018-06-23T11:52:10.515Z,2.93
2018-06-23T11:54:23.139Z,3.63
2018-06-23T11:56:35.604Z,3.47
2018-06-23T11:58:48.090Z,3.53
2018-06-23T12:01:03.727Z,3.73
2018-06-23T12:03:18.130Z,3.60
2018-06-23T12:05:30.628Z,3.80
2018-06-23T12:07:43.883Z,3.50
2018-06-23T12:09:57.109Z,3.00
2018-06-23T12:12:15.317Z,3.60
2018-06-23T12:14:27.717Z,3.50
2018-06-23T12:16:40.257Z,4.00
2018-06-23T12:18:53.727Z,4.43
2018-06-23T12:21:06.228Z,3.93
2018-06-23T12:23:19.313Z,3.83
2018-06-23T12:25:31.855Z,4.77
2018-06-23T12:27:44.274Z,4.07
2018-06-23T12:29:57.373Z,4.90
2018-06-23T12:32:12.802Z,4.17
2018-06-23T12:34:25.286Z,4.13
2018-06-23T12:36:38.318Z,3.70
2018-06-23T12:38:51.557Z,4.30
2018-06-23T12:41:03.903Z,4.27
2018-06-23T12:43:19.941Z,4.07
2018-06-23T12:45:32.370Z,4.93
2018-06-23T12:47:45.660Z,3.93
2018-06-23T12:49:58.058Z,4.53
2018-06-23T12:52:11.464Z,3.30
2018-06-23T12:54:24.510Z,4.30
2018-06-23T12:56:37.017Z,4.20
2018-06-23T12:58:49.454Z,4.60
2018-06-23T13:01:02.703Z,4.47
2018-06-23T13:03:15.200Z,4.80
2018-06-23T13:05:27.606Z,4.83
2018-06-23T13:07:42.761Z,4.23
2018-06-23T13:09:56.541Z,4.90
2018-06-23T13:12:08.967Z,4.33
2018-06-23T13:14:21.608Z,4.37
2018-06-23T13:16:34.729Z,4.47
2018-06-23T13:18:48.535Z,4.53
2018-06-23T13:21:00.974Z,4.60
2018-06-23T13:23:14.712Z,4.20
2018-06-23T13:25:27.196Z,4.00
2018-06-23T13:27:41.733Z,4.10
2018-06-23T13:29:54.375Z,4.80
2018-06-23T13:32:06.830Z,3.97
2018-06-23T13:34:21.263Z,4.63
2018-06-23T13:36:33.646Z,4.20
2018-06-23T13:38:46.044Z,3.97
2018-06-23T13:41:01.730Z,4.00
2018-06-23T13:43:14.141Z,3.43
2018-06-23T13:45:27.454Z,4.57
2018-06-23T13:47:42.716Z,3.90
2018-06-23T13:49:55.095Z,5.17
2018-06-23T13:52:08.327Z,4.40
2018-06-23T13:54:21.615Z,5.00
2018-06-23T13:56:33.970Z,4.07
2018-06-23T13:58:46.406Z,4.83
2018-06-23T14:00:58.893Z,4.47
2018-06-23T14:03:11.368Z,3.93
2018-06-23T14:05:27.815Z,4.40
2018-06-23T14:07:40.416Z,4.10
2018-06-23T14:09:52.897Z,3.97
2018-06-23T14:12:05.468Z,3.63
2018-06-23T14:14:17.842Z,3.60
2018-06-23T14:16:30.211Z,3.67
2018-06-23T14:18:44.474Z,3.73
2018-06-23T14:20:57.787Z,3.70
2018-06-23T14:23:10.157Z,3.50
2018-06-23T14:25:22.574Z,4.03
2018-06-23T14:27:35.219Z,3.97
2018-06-23T14:29:47.655Z,3.67
2018-06-23T14:32:00.376Z,3.30
2018-06-23T14:34:12.527Z,3.23
2018-06-23T14:36:25.034Z,3.33
2018-06-23T14:38:40.518Z,3.50
2018-06-23T14:40:53.027Z,3.27
2018-06-23T14:43:05.570Z,3.67
2018-06-23T14:45:18.102Z,3.57
2018-06-23T14:47:30.621Z,4.10
2018-06-23T14:49:43.013Z,3.97
2018-06-23T14:51:55.472Z,3.93
2018-06-23T14:54:07.879Z,3.30
2018-06-23T14:56:20.253Z,3.80
2018-06-23T14:58:32.691Z,3.20
2018-06-23T15:00:45.994Z,3.20
2018-06-23T15:02:58.381Z,3.17
2018-06-23T15:05:10.779Z,3.00
2018-06-23T15:07:25.925Z,3.50
2018-06-23T15:09:50.648Z,3.50
2018-06-23T15:12:14.418Z,3.23
2018-06-23T15:14:26.812Z,3.17
2018-06-23T15:16:39.234Z,2.93
2018-06-23T15:18:51.750Z,3.77
2018-06-23T15:21:04.179Z,3.30
2018-06-23T15:23:20.402Z,3.00
2018-06-23T15:25:32.903Z,2.90
2018-06-23T15:27:45.322Z,2.67
2018-06-23T15:29:57.727Z,2.77
2018-06-23T15:32:13.098Z,3.00
2018-06-23T15:34:25.466Z,2.80
2018-06-23T15:36:37.825Z,2.90
2018-06-23T15:38:52.147Z,3.00
2018-06-23T15:41:05.166Z,2.90
2018-06-23T15:43:17.587Z,2.90
2018-06-23T15:45:30.018Z,2.67
2018-06-23T15:47:42.508Z,2.67
2018-06-23T15:49:54.949Z,2.90
2018-06-23T15:52:09.383Z,2.60
2018-06-23T15:54:21.838Z,2.10
2018-06-23T15:56:34.265Z,2.70
2018-06-23T15:58:46.825Z,2.90
2018-06-23T16:00:59.571Z,2.40
2018-06-23T16:03:11.913Z,3.17
2018-06-23T16:05:24.307Z,3.03
2018-06-23T16:07:39.624Z,2.60
2018-06-23T16:09:52.125Z,2.50
2018-06-23T16:12:04.450Z,2.63
2018-06-23T16:14:16.821Z,3.40
2018-06-23T16:16:29.202Z,2.80
2018-06-23T16:18:42.600Z,3.30
2018-06-23T16:20:55.013Z,3.00
2018-06-23T16:23:07.637Z,2.67
2018-06-23T16:25:20.050Z,3.13
2018-06-23T16:27:32.509Z,3.30
2018-06-23T16:29:44.878Z,3.10
2018-06-23T16:31:57.350Z,3.03
2018-06-23T16:34:09.762Z,3.13
2018-06-23T16:36:23.129Z,2.80
2018-06-23T16:38:35.490Z,2.60
2018-06-23T16:40:47.898Z,2.77
2018-06-23T16:43:00.418Z,3.23
2018-06-23T16:45:12.925Z,3.27
2018-06-23T16:47:25.493Z,3.03
2018-06-23T16:49:37.904Z,3.10
2018-06-23T16:51:50.338Z,2.87
2018-06-23T16:54:02.746Z,3.30
2018-06-23T16:56:15.162Z,3.90
2018-06-23T16:58:27.573Z,3.13
2018-06-23T17:00:40.042Z,3.40
2018-06-23T17:02:52.442Z,3.40
2018-06-23T17:05:04.959Z,3.37
2018-06-23T17:07:17.478Z,3.30
2018-06-23T17:09:29.969Z,3.73
2018-06-23T17:11:42.422Z,3.63
2018-06-23T17:13:54.814Z,3.60
2018-06-23T17:16:08.861Z,3.30
2018-06-23T17:18:21.340Z,3.03
2018-06-23T17:20:33.705Z,3.40
2018-06-23T17:22:46.134Z,3.83
2018-06-23T17:24:58.561Z,3.40
2018-06-23T17:27:10.969Z,3.00
2018-06-23T17:29:23.338Z,3.00
2018-06-23T17:31:35.938Z,3.53
2018-06-23T17:33:48.386Z,3.63
2018-06-23T17:36:00.972Z,2.93
2018-06-23T17:38:13.346Z,2.70
2018-06-23T17:40:25.726Z,2.70
2018-06-23T17:42:38.221Z,2.90
2018-06-23T17:44:50.660Z,2.80
2018-06-23T17:47:03.186Z,2.90
2018-06-23T17:49:15.634Z,2.50
2018-06-23T17:51:28.251Z,2.40
2018-06-23T17:53:40.622Z,2.73
2018-06-23T17:55:53.134Z,2.50
2018-06-23T17:58:05.693Z,2.00
2018-06-23T18:00:18.011Z,2.47
2018-06-23T18:02:30.540Z,2.43
2018-06-23T18:04:42.975Z,1.70
2018-06-23T18:06:55.340Z,2.60
2018-06-23T18:09:08.942Z,1.97
2018-06-23T18:11:21.395Z,2.13
2018-06-23T18:13:33.890Z,1.97
2018-06-23T18:15:46.334Z,2.20
2018-06-23T18:17:58.793Z,2.15
2018-06-23T18:20:11.243Z,2.10
2018-06-23T18:22:23.642Z,2.20
2018-06-23T18:24:36.052Z,2.27
2018-06-23T18:26:48.522Z,2.00
2018-06-23T18:29:00.946Z,2.10
2018-06-23T18:31:13.310Z,1.90
2018-06-23T18:33:25.706Z,2.00
2018-06-23T18:35:38.149Z,1.87
2018-06-23T18:37:50.580Z,2.47
2018-06-23T18:40:03.547Z,2.30
2018-06-23T18:42:15.997Z,1.90
2018-06-23T18:44:28.398Z,2.20
2018-06-23T18:46:40.957Z,2.10
2018-06-23T18:48:53.467Z,1.90
2018-06-23T18:51:05.986Z,2.13
2018-06-23T18:53:18.403Z,1.63
2018-06-23T18:55:30.790Z,1.93
2018-06-23T18:57:43.206Z,2.33
2018-06-23T18:59:55.671Z,2.47
2018-06-23T19:02:08.157Z,2.73
2018-06-23T19:04:20.566Z,2.17
2018-06-23T19:06:32.964Z,2.10
2018-06-23T19:08:45.368Z,2.10
2018-06-23T19:10:57.705Z,2.10
2018-06-23T19:13:10.188Z,1.90
2018-06-23T19:15:22.694Z,2.30
2018-06-23T19:17:35.265Z,2.27
2018-06-23T19:19:47.734Z,2.00
2018-06-23T19:22:00.222Z,2.60
2018-06-23T19:24:12.658Z,2.10
2018-06-23T19:26:25.152Z,2.57
2018-06-23T19:28:37.866Z,2.73
2018-06-23T19:30:50.238Z,2.60
2018-06-23T19:33:02.654Z,2.80
2018-06-23T19:35:15.223Z,2.73
2018-06-23T19:37:27.633Z,2.70
2018-06-23T19:39:40.022Z,2.87
2018-06-23T19:41:52.443Z,2.57
2018-06-23T19:44:05.096Z,2.60
2018-06-23T19:46:17.656Z,2.80
2018-06-23T19:48:30.086Z,3.10
2018-06-23T19:50:42.468Z,2.60
2018-06-23T19:52:54.802Z,2.90
2018-06-23T19:55:07.144Z,2.70
2018-06-23T19:57:19.558Z,2.30
2018-06-23T19:59:32.065Z,3.07
2018-06-23T20:01:44.472Z,2.47
2018-06-23T20:03:56.937Z,3.10
2018-06-23T20:06:09.258Z,3.00
2018-06-23T20:08:21.715Z,2.97
2018-06-23T20:10:34.069Z,2.80
2018-06-23T20:12:46.482Z,2.80
2018-06-23T20:14:59.048Z,2.70
2018-06-23T20:17:11.514Z,3.30
2018-06-23T20:19:24.119Z,3.33
2018-06-23T20:21:36.515Z,3.60
2018-06-23T20:23:48.879Z,3.07
2018-06-23T20:26:01.358Z,2.70
2018-06-23T20:28:13.904Z,3.70
2018-06-23T20:30:26.346Z,3.17
2018-06-23T20:32:38.759Z,3.33
2018-06-23T20:34:51.150Z,2.50
2018-06-23T20:37:03.660Z,3.00
2018-06-23T20:39:16.204Z,2.93
2018-06-23T20:41:28.828Z,3.80
2018-06-23T20:43:41.269Z,3.37
2018-06-23T20:45:53.664Z,2.80
2018-06-23T20:48:06.031Z,3.33
2018-06-23T20:50:18.473Z,3.27
2018-06-23T20:52:30.861Z,3.73
2018-06-23T20:54:43.263Z,3.10
2018-06-23T20:56:55.681Z,3.70
2018-06-23T20:59:08.119Z,3.23
2018-06-23T21:01:20.715Z,3.23
2018-06-23T21:03:33.044Z,4.00
2018-06-23T21:05:45.756Z,3.90
2018-06-23T21:07:58.205Z,3.90
2018-06-23T21:10:38.094Z,3.77
2018-06-23T21:12:50.476Z,4.00
2018-06-23T21:15:02.901Z,3.97
2018-06-23T21:17:15.287Z,4.33
2018-06-23T21:19:27.670Z,3.90
2018-06-23T21:21:40.047Z,4.10
2018-06-23T21:23:52.426Z,4.00
2018-06-23T21:26:04.889Z,4.00
2018-06-23T21:28:17.305Z,4.63
2018-06-23T21:30:29.799Z,4.63
2018-06-23T21:32:42.167Z,4.67
2018-06-23T21:34:54.621Z,4.80
2018-06-23T21:37:07.150Z,4.37
2018-06-23T21:39:19.673Z,4.90
2018-06-23T21:41:32.041Z,5.00
2018-06-23T21:43:44.554Z,4.60
2018-06-23T21:45:57.058Z,4.10
2018-06-23T21:48:10.018Z,4.40
2018-06-23T21:50:22.473Z,4.23
2018-06-23T21:52:34.930Z,4.50
2018-06-23T21:54:47.316Z,4.63
2018-06-23T21:56:59.831Z,4.33
2018-06-23T21:59:12.219Z,4.60
2018-06-23T22:01:24.642Z,5.00
2018-06-23T22:03:37.060Z,3.73
2018-06-23T22:05:49.477Z,4.33
2018-06-23T22:08:01.846Z,4.67
2018-06-23T22:10:14.289Z,4.97
2018-06-23T22:12:26.714Z,4.30
2018-06-23T22:14:39.214Z,3.60
2018-06-23T22:16:51.846Z,4.50
2018-06-23T22:19:04.227Z,4.07
2018-06-23T22:21:16.622Z,4.33
2018-06-23T22:23:29.089Z,3.67
2018-06-23T22:25:41.478Z,4.80
2018-06-23T22:27:53.890Z,4.90
2018-06-23T22:30:06.331Z,4.23
2018-06-23T22:32:18.855Z,4.80
2018-06-23T22:34:31.259Z,5.20
2018-06-23T22:36:43.637Z,4.53
2018-06-23T22:38:56.049Z,4.20
2018-06-23T22:41:08.510Z,4.40
2018-06-23T22:43:20.887Z,4.50
2018-06-23T22:45:33.269Z,4.37
2018-06-23T22:47:45.719Z,4.80
2018-06-23T22:49:58.163Z,4.50
2018-06-23T22:52:10.525Z,4.90
2018-06-23T22:54:22.959Z,4.47
2018-06-23T22:56:35.400Z,5.13
2018-06-23T22:58:47.794Z,4.70
2018-06-23T23:01:00.242Z,5.23
2018-06-23T23:03:12.678Z,6.07
2018-06-23T23:05:25.183Z,5.20
2018-06-23T23:07:38.063Z,5.10
2018-06-23T23:09:50.490Z,5.23
2018-06-23T23:12:03.541Z,5.50
2018-06-23T23:14:15.929Z,5.20
2018-06-23T23:16:28.371Z,5.17
2018-06-23T23:18:40.820Z,5.63
2018-06-23T23:20:53.234Z,5.50
2018-06-23T23:23:05.842Z,5.00
2018-06-23T23:25:18.255Z,5.37
2018-06-23T23:27:30.733Z,5.30
2018-06-23T23:29:43.102Z,5.10
2018-06-23T23:31:55.478Z,5.30
2018-06-23T23:34:07.959Z,4.93
2018-06-23T23:36:20.326Z,5.60
2018-06-23T23:38:32.803Z,4.73
2018-06-23T23:40:45.304Z,5.53
2018-06-23T23:42:57.642Z,4.90
2018-06-23T23:45:10.246Z,5.57
2018-06-23T23:47:22.823Z,5.27
2018-06-23T23:49:35.226Z,5.60
2018-06-23T23:51:47.554Z,5.67
2018-06-23T23:53:59.958Z,6.00
2018-06-23T23:56:12.391Z,6.10
2018-06-23T23:58:24.761Z,5.83
